Time;durP1;ratioP1;P1;durP2;ratioP2;P2;SDS_P1;SDS_P2;PMS_P1;PMS_P2;Temp;Humidity;BMP_temperature;BMP_pressure;BME280_temperature;BME280_humidity;BME280_pressure;Samples;Min_cycle;Max_cycle;Signal;HPM_P1;HPM_P2
2024/04/05 00:00:36;;;;;;;8.55;5.97;;;25.10;50.40;;;;;;6154760;28;80326;-53
2024/04/05 00:03:36;;;;;;;10.32;6.40;;;25.10;50.20;;;;;;6151070;28;80436;-52
2024/04/05 00:06:37;;;;;;;7.25;6.00;;;25.00;50.30;;;;;;6171574;28;82779;-48
2024/04/05 00:09:39;;;;;;;7.80;7.00;;;25.00;50.20;;;;;;6150423;28;80171;-54
2024/04/05 00:12:40;;;;;;;8.50;6.53;;;25.00;50.10;;;;;;6164669;28;80836;-55
2024/04/05 00:15:40;;;;;;;9.10;6.45;;;25.00;50.10;;;;;;6155387;28;82390;-52
2024/04/05 00:18:41;;;;;;;9.95;6.07;;;25.00;50.80;;;;;;6150238;28;80452;-54
2024/04/05 00:21:42;;;;;;;8.00;6.38;;;25.00;50.20;;;;;;6153811;28;80178;-51
2024/04/05 00:24:42;;;;;;;8.18;6.40;;;25.00;50.10;;;;;;6157357;28;81751;-55
2024/04/05 00:27:43;;;;;;;7.43;6.28;;;25.00;50.10;;;;;;6164219;28;80701;-50
2024/04/05 00:30:43;;;;;;;8.00;5.95;;;25.00;50.10;;;;;;6154762;28;81891;-50
2024/04/05 00:33:44;;;;;;;7.18;5.82;;;25.00;50.20;;;;;;6165287;28;83032;-51
2024/04/05 00:36:44;;;;;;;9.32;6.80;;;25.00;50.20;;;;;;6155445;28;80484;-54
2024/04/05 00:39:45;;;;;;;8.15;6.30;;;25.00;50.10;;;;;;6167119;28;80350;-51
2024/04/05 00:42:45;;;;;;;6.93;5.97;;;25.00;50.10;;;;;;6156880;28;80779;-51
2024/04/05 00:45:46;;;;;;;9.43;6.88;;;25.00;50.10;;;;;;6165148;28;80785;-48
2024/04/05 00:48:46;;;;;;;7.90;6.47;;;25.00;50.10;;;;;;6155143;28;80796;-48
2024/04/05 00:51:47;;;;;;;7.25;6.03;;;25.00;50.10;;;;;;6153255;28;81964;-48
2024/04/05 00:54:47;;;;;;;8.05;6.32;;;25.10;50.10;;;;;;6140506;28;80094;-48
2024/04/05 00:57:48;;;;;;;8.75;6.47;;;25.10;50.10;;;;;;6153650;28;80690;-48
2024/04/05 01:00:48;;;;;;;9.18;7.03;;;25.00;50.00;;;;;;6158405;28;81177;-50
2024/04/05 01:03:49;;;;;;;8.20;7.15;;;25.00;50.00;;;;;;6158184;28;81168;-53
2024/04/05 01:06:49;;;;;;;7.97;6.68;;;25.10;50.10;;;;;;6167020;28;80398;-54
2024/04/05 01:09:50;;;;;;;8.45;6.50;;;25.00;50.20;;;;;;6155434;28;81813;-52
2024/04/05 01:12:50;;;;;;;7.05;6.35;;;25.10;50.30;;;;;;6166746;28;80642;-53
2024/04/05 01:15:51;;;;;;;8.18;6.85;;;25.00;50.20;;;;;;6154908;28;81201;-55
2024/04/05 01:18:52;;;;;;;9.63;7.55;;;25.10;50.30;;;;;;6154558;28;80585;-56
2024/04/05 01:21:54;;;;;;;7.00;6.30;;;25.10;50.40;;;;;;6153172;28;81133;-53
2024/04/05 01:24:54;;;;;;;10.48;6.82;;;25.10;50.40;;;;;;6161586;28;80582;-57
2024/04/05 01:27:55;;;;;;;8.15;6.57;;;25.00;50.30;;;;;;6159201;28;80790;-56
2024/04/05 01:30:56;;;;;;;7.20;5.80;;;25.00;50.30;;;;;;6137367;28;80961;-57
2024/04/05 01:33:56;;;;;;;7.50;5.82;;;25.10;50.20;;;;;;6161330;28;80588;-57
2024/04/05 01:36:57;;;;;;;7.90;6.63;;;25.00;50.20;;;;;;6154159;28;82493;-55
2024/04/05 01:39:57;;;;;;;7.75;6.10;;;25.00;50.20;;;;;;6153813;28;80534;-57
2024/04/05 01:42:58;;;;;;;8.95;7.10;;;25.00;50.20;;;;;;6166853;28;82550;-58
2024/04/05 01:45:58;;;;;;;8.90;6.82;;;25.00;50.20;;;;;;6162691;28;80327;-59
2024/04/05 01:48:59;;;;;;;8.43;6.75;;;25.00;50.50;;;;;;6161347;28;80548;-59
2024/04/05 01:51:59;;;;;;;8.57;6.80;;;25.00;50.30;;;;;;6163130;28;80718;-59
2024/04/05 01:55:00;;;;;;;6.85;6.15;;;25.00;50.30;;;;;;6155095;28;81245;-60
2024/04/05 01:58:00;;;;;;;8.27;6.40;;;25.00;50.20;;;;;;6154370;28;80718;-60
2024/04/05 02:01:01;;;;;;;8.32;6.40;;;25.00;50.80;;;;;;6166233;28;80753;-48
2024/04/05 02:04:02;;;;;;;11.77;7.03;;;25.00;50.30;;;;;;6153964;28;80757;-49
2024/04/05 02:07:02;;;;;;;6.68;5.90;;;25.00;50.30;;;;;;6165050;28;82527;-52
2024/04/05 02:10:03;;;;;;;8.52;6.93;;;25.00;50.30;;;;;;6153225;28;80241;-51
2024/04/05 02:13:04;;;;;;;8.25;6.75;;;25.00;50.40;;;;;;6153081;28;81602;-49
2024/04/05 02:16:05;;;;;;;10.48;7.22;;;25.00;50.30;;;;;;6153599;28;80524;-50
2024/04/05 02:19:05;;;;;;;8.07;6.55;;;25.00;50.30;;;;;;6153319;28;81107;-52
2024/04/05 02:22:06;;;;;;;9.65;7.28;;;25.00;50.20;;;;;;6152908;28;80274;-46
2024/04/05 02:25:06;;;;;;;7.25;6.55;;;25.00;50.20;;;;;;6162025;28;81211;-47
2024/04/05 02:28:08;;;;;;;7.97;6.63;;;25.00;50.10;;;;;;6156377;28;80544;-50
2024/04/05 02:31:09;;;;;;;9.25;6.82;;;25.00;50.10;;;;;;6155255;28;84927;-55
2024/04/05 02:34:09;;;;;;;10.57;8.48;;;25.00;50.10;;;;;;6157969;28;80808;-47
2024/04/05 02:37:10;;;;;;;8.45;6.50;;;25.00;50.00;;;;;;6153279;28;80339;-49
2024/04/05 02:40:10;;;;;;;8.73;6.55;;;25.00;50.00;;;;;;6152175;28;80723;-53
2024/04/05 02:43:11;;;;;;;7.88;6.40;;;25.00;50.00;;;;;;6152658;28;82098;-49
2024/04/05 02:46:11;;;;;;;7.53;6.47;;;25.00;50.00;;;;;;6152670;28;81583;-49
2024/04/05 02:49:12;;;;;;;6.93;6.18;;;25.00;50.00;;;;;;6158247;28;83981;-48
2024/04/05 02:52:12;;;;;;;8.05;6.65;;;25.00;49.90;;;;;;6152261;28;80414;-48
2024/04/05 02:55:13;;;;;;;7.03;6.18;;;25.00;50.00;;;;;;6152089;28;80691;-55
2024/04/05 02:58:13;;;;;;;7.57;6.28;;;25.00;49.90;;;;;;6152112;28;81514;-53
2024/04/05 03:01:14;;;;;;;8.05;6.55;;;25.00;50.00;;;;;;6158285;28;80864;-54
2024/04/05 03:04:14;;;;;;;7.43;6.22;;;25.00;50.00;;;;;;6152380;28;81058;-53
2024/04/05 03:07:15;;;;;;;7.50;6.07;;;25.00;50.00;;;;;;6163068;28;80537;-54
2024/04/05 03:10:16;;;;;;;7.10;6.07;;;25.00;50.00;;;;;;6151891;28;80928;-49
2024/04/05 03:13:16;;;;;;;8.27;7.03;;;25.00;50.30;;;;;;6163245;28;80490;-53
2024/04/05 03:16:17;;;;;;;8.85;6.55;;;25.00;50.00;;;;;;6153300;28;80705;-53
2024/04/05 03:19:17;;;;;;;8.23;6.10;;;25.00;50.10;;;;;;6150780;28;80644;-49
2024/04/05 03:22:18;;;;;;;8.88;6.88;;;25.00;50.00;;;;;;6152846;28;80457;-50
2024/04/05 03:25:18;;;;;;;6.78;5.68;;;25.00;49.90;;;;;;6153250;28;80768;-52
2024/04/05 03:28:19;;;;;;;8.00;6.00;;;25.00;49.80;;;;;;6151602;28;80528;-51
2024/04/05 03:31:19;;;;;;;6.72;6.00;;;25.00;50.00;;;;;;6154616;28;80220;-52
2024/04/05 03:34:20;;;;;;;8.45;6.68;;;24.90;50.00;;;;;;6157087;28;80804;-55
2024/04/05 03:37:23;;;;;;;6.22;5.40;;;24.90;49.90;;;;;;6151232;28;82099;-53
2024/04/05 03:40:24;;;;;;;6.18;5.38;;;24.90;49.90;;;;;;6151991;28;80482;-53
2024/04/05 03:43:24;;;;;;;6.95;5.55;;;24.90;49.80;;;;;;6151351;28;80701;-53
2024/04/05 03:46:25;;;;;;;6.20;5.00;;;24.90;49.80;;;;;;6163769;28;81578;-54
2024/04/05 03:49:28;;;;;;;6.60;5.63;;;24.90;50.00;;;;;;6161173;28;80213;-52
2024/04/05 03:52:28;;;;;;;5.47;4.97;;;24.90;49.70;;;;;;6154065;28;80471;-51
2024/04/05 03:55:29;;;;;;;6.85;4.53;;;24.90;49.60;;;;;;6155453;28;80390;-48
2024/04/05 03:58:30;;;;;;;5.93;4.78;;;24.90;49.70;;;;;;6156110;28;80413;-50
2024/04/05 04:01:30;;;;;;;6.55;4.72;;;24.90;49.70;;;;;;6155994;28;80336;-52
2024/04/05 04:04:31;;;;;;;6.97;5.07;;;24.90;49.60;;;;;;6155027;28;80756;-48
2024/04/05 04:07:31;;;;;;;6.63;5.22;;;24.90;49.50;;;;;;6168916;28;80411;-50
2024/04/05 04:10:32;;;;;;;5.95;4.97;;;24.90;49.50;;;;;;6155617;28;82822;-56
2024/04/05 04:13:32;;;;;;;7.53;5.68;;;25.00;49.30;;;;;;6155981;28;80470;-47
2024/04/05 04:16:33;;;;;;;5.95;4.82;;;24.90;49.10;;;;;;6160032;28;82656;-57
2024/04/05 04:19:33;;;;;;;5.80;4.55;;;24.90;49.50;;;;;;6153888;28;85340;-47
2024/04/05 04:22:33;;;;;;;11.65;4.88;;;25.00;49.70;;;;;;6155689;28;83077;-54
2024/04/05 04:25:34;;;;;;;5.85;5.15;;;24.90;49.60;;;;;;6155168;28;80949;-49
2024/04/05 04:28:34;;;;;;;5.80;4.68;;;25.00;49.80;;;;;;6155606;28;81756;-53
2024/04/05 04:31:35;;;;;;;8.23;4.22;;;25.00;49.70;;;;;;6160751;28;80740;-55
2024/04/05 04:34:36;;;;;;;8.13;4.50;;;24.90;49.60;;;;;;6157895;28;81850;-57
2024/04/05 04:37:36;;;;;;;5.38;4.55;;;24.90;49.70;;;;;;6157215;28;82289;-54
2024/04/05 04:40:37;;;;;;;5.57;4.63;;;24.90;49.60;;;;;;6155443;28;81099;-55
2024/04/05 04:43:38;;;;;;;8.55;4.22;;;25.00;49.70;;;;;;6153886;28;81593;-57
2024/04/05 04:46:38;;;;;;;6.95;4.15;;;25.00;50.00;;;;;;6154531;28;81833;-58
2024/04/05 04:49:39;;;;;;;8.10;4.00;;;25.00;50.20;;;;;;6161538;28;80570;-54
2024/04/05 04:52:39;;;;;;;9.07;3.95;;;24.90;50.00;;;;;;6152562;28;81143;-57
2024/04/05 04:55:41;;;;;;;8.30;3.70;;;24.90;50.10;;;;;;6150758;28;81205;-58
2024/04/05 04:58:42;;;;;;;9.23;3.60;;;24.90;49.80;;;;;;6152032;28;81291;-58
2024/04/05 05:01:42;;;;;;;6.57;3.90;;;24.90;49.80;;;;;;6149359;28;80758;-57
2024/04/05 05:04:43;;;;;;;4.03;3.55;;;24.90;49.70;;;;;;6149188;28;80531;-60
2024/04/05 05:07:44;;;;;;;7.38;3.58;;;24.90;49.60;;;;;;6150856;28;82828;-61
2024/04/05 05:10:44;;;;;;;5.18;3.85;;;24.90;49.60;;;;;;6155105;28;80721;-62
2024/04/05 05:13:45;;;;;;;7.18;4.10;;;24.90;49.60;;;;;;6174049;28;82828;-61
2024/04/05 05:16:45;;;;;;;5.05;3.47;;;24.90;49.50;;;;;;6176724;28;82282;-60
2024/04/05 05:19:46;;;;;;;10.05;3.55;;;24.90;49.70;;;;;;6166902;28;80800;-61
2024/04/05 05:22:46;;;;;;;4.53;3.30;;;24.90;49.60;;;;;;6170084;28;80681;-56
2024/04/05 05:25:47;;;;;;;5.63;3.75;;;24.90;49.70;;;;;;6154634;28;85489;-54
2024/04/05 05:28:47;;;;;;;6.43;3.15;;;24.90;49.50;;;;;;6142350;28;90075;-57
2024/04/05 05:31:48;;;;;;;5.13;3.45;;;24.90;49.50;;;;;;6157525;28;81905;-53
2024/04/05 05:34:48;;;;;;;5.00;2.63;;;24.90;49.40;;;;;;6157241;28;83215;-57
2024/04/05 05:37:49;;;;;;;7.95;3.63;;;25.00;50.00;;;;;;6147297;28;85295;-54
2024/04/05 05:40:49;;;;;;;4.35;3.30;;;25.00;49.50;;;;;;6133249;28;82026;-57
2024/04/05 05:43:50;;;;;;;4.38;3.08;;;25.00;49.50;;;;;;6147594;28;82170;-55
2024/04/05 05:46:50;;;;;;;5.32;3.08;;;25.00;49.60;;;;;;6147560;28;81591;-56
2024/04/05 05:49:54;;;;;;;3.72;2.70;;;24.90;49.50;;;;;;6156518;28;80977;-55
2024/04/05 05:52:55;;;;;;;5.13;3.50;;;24.90;49.40;;;;;;6156206;28;81378;-56
2024/04/05 05:55:55;;;;;;;4.18;2.63;;;24.90;49.30;;;;;;6156313;28;81294;-56
2024/04/05 05:58:56;;;;;;;6.57;3.05;;;24.90;49.30;;;;;;6156044;28;82298;-52
2024/04/05 06:01:57;;;;;;;5.10;2.55;;;24.90;49.20;;;;;;6155096;28;81816;-52
2024/04/05 06:04:57;;;;;;;3.97;2.70;;;24.90;49.20;;;;;;6153572;28;81438;-54
2024/04/05 06:07:58;;;;;;;5.10;2.78;;;25.00;49.20;;;;;;6158228;28;80836;-51
2024/04/05 06:10:58;;;;;;;4.47;3.05;;;25.00;49.20;;;;;;6155484;28;80815;-52
2024/04/05 06:13:58;;;;;;;5.90;2.58;;;25.00;49.10;;;;;;6152367;28;81614;-49
2024/04/05 06:16:59;;;;;;;4.13;2.47;;;25.00;49.00;;;;;;6156281;28;81476;-52
2024/04/05 06:20:00;;;;;;;3.97;2.67;;;25.00;48.90;;;;;;6155543;28;84702;-53
2024/04/05 06:23:00;;;;;;;4.45;2.88;;;25.00;49.10;;;;;;6155321;28;83022;-52
2024/04/05 06:26:01;;;;;;;3.10;2.45;;;25.00;49.10;;;;;;6157209;28;81900;-53
2024/04/05 06:29:01;;;;;;;4.22;2.83;;;25.00;49.10;;;;;;6153904;28;82117;-53
2024/04/05 06:32:02;;;;;;;4.72;2.63;;;25.00;49.10;;;;;;6133616;28;81566;-52
2024/04/05 06:35:02;;;;;;;4.10;2.83;;;25.00;49.20;;;;;;6155082;28;81979;-53
2024/04/05 06:38:03;;;;;;;2.53;2.28;;;25.00;49.10;;;;;;6154254;28;81782;-51
2024/04/05 06:41:04;;;;;;;3.67;2.60;;;25.00;49.10;;;;;;6156418;28;81739;-54
2024/04/05 06:44:04;;;;;;;4.82;2.78;;;25.00;49.10;;;;;;6152545;28;80904;-53
2024/04/05 06:47:05;;;;;;;2.90;2.20;;;25.00;49.00;;;;;;6155994;28;81493;-53
2024/04/05 06:50:05;;;;;;;3.72;2.47;;;25.00;49.10;;;;;;6155212;28;81195;-54
2024/04/05 06:53:06;;;;;;;2.30;2.03;;;25.00;49.00;;;;;;6154457;28;82062;-52
2024/04/05 06:56:06;;;;;;;2.55;2.30;;;25.00;49.00;;;;;;6151663;28;81262;-59
2024/04/05 06:59:07;;;;;;;5.07;2.70;;;25.00;49.10;;;;;;6166375;28;80788;-59
2024/04/05 07:02:08;;;;;;;7.25;2.50;;;25.00;49.00;;;;;;6160148;28;80266;-59
2024/04/05 07:05:08;;;;;;;6.38;2.45;;;25.00;49.00;;;;;;6157086;28;80903;-59
2024/04/05 07:08:09;;;;;;;4.13;2.63;;;25.00;49.10;;;;;;6163047;28;85767;-58
2024/04/05 07:11:10;;;;;;;3.13;2.30;;;25.00;48.90;;;;;;6151166;28;80424;-58
2024/04/05 07:14:10;;;;;;;3.50;2.33;;;25.00;48.80;;;;;;6143095;28;81337;-59
2024/04/05 07:17:12;;;;;;;2.97;2.10;;;25.00;49.00;;;;;;6128752;28;80936;-59
2024/04/05 07:20:13;;;;;;;2.15;1.90;;;25.00;48.90;;;;;;6130014;28;80479;-60
2024/04/05 07:23:13;;;;;;;3.90;2.00;;;25.00;48.80;;;;;;6133366;28;80844;-60
2024/04/05 07:26:14;;;;;;;2.45;2.22;;;25.10;49.00;;;;;;6139918;28;80417;-60
2024/04/05 07:29:15;;;;;;;3.15;2.05;;;25.10;48.90;;;;;;6155218;28;82716;-59
2024/04/05 07:32:16;;;;;;;3.50;1.80;;;25.10;48.80;;;;;;6158642;28;81698;-50
2024/04/05 07:35:17;;;;;;;2.25;1.77;;;25.10;48.90;;;;;;6152012;28;80631;-52
2024/04/05 07:38:17;;;;;;;3.30;1.92;;;25.10;49.10;;;;;;6158410;28;80657;-53
2024/04/05 07:41:18;;;;;;;2.58;1.75;;;25.10;48.90;;;;;;6162806;28;80735;-53
2024/04/05 07:44:19;;;;;;;1.92;1.67;;;25.10;48.80;;;;;;6154357;28;81741;-52
2024/04/05 07:47:19;;;;;;;2.15;1.40;;;25.10;48.80;;;;;;6140292;28;80557;-53
2024/04/05 07:50:20;;;;;;;5.07;1.80;;;25.20;48.90;;;;;;6156547;28;81054;-53
2024/04/05 07:53:22;;;;;;;3.08;1.83;;;25.20;48.90;;;;;;6155795;28;81832;-52
2024/04/05 07:56:23;;;;;;;3.80;2.08;;;25.20;49.20;;;;;;6160060;28;82258;-55
2024/04/05 07:59:24;;;;;;;2.05;1.83;;;25.30;49.10;;;;;;6127711;28;82755;-49
2024/04/05 08:02:29;;;;;;;2.30;1.80;;;25.30;49.00;;;;;;6133415;28;81680;-50
2024/04/05 08:05:29;;;;;;;2.45;1.55;;;25.20;49.10;;;;;;6137634;28;80497;-52
2024/04/05 08:08:30;;;;;;;3.05;1.63;;;25.20;49.20;;;;;;6132940;28;81316;-54
2024/04/05 08:11:30;;;;;;;2.60;1.73;;;25.20;49.00;;;;;;6138293;28;80312;-51
2024/04/05 08:14:31;;;;;;;1.60;1.38;;;25.20;49.00;;;;;;6155809;28;80595;-52
2024/04/05 08:17:31;;;;;;;3.35;1.45;;;25.30;48.60;;;;;;6154703;28;80573;-52
2024/04/05 08:20:32;;;;;;;3.17;1.90;;;25.30;48.60;;;;;;6165517;28;80453;-54
2024/04/05 08:23:32;;;;;;;2.17;1.88;;;25.30;49.00;;;;;;6147236;28;82529;-52
2024/04/05 08:26:34;;;;;;;2.42;1.77;;;25.30;49.20;;;;;;6131497;28;80839;-53
2024/04/05 08:29:35;;;;;;;2.30;1.70;;;25.30;49.10;;;;;;6138419;28;80502;-53
2024/04/05 08:32:35;;;;;;;2.22;1.67;;;25.30;49.30;;;;;;6134199;28;80513;-52
2024/04/05 08:35:36;;;;;;;2.10;1.40;;;25.30;49.30;;;;;;6130829;28;80367;-51
2024/04/05 08:38:36;;;;;;;1.30;1.20;;;25.30;49.00;;;;;;6137067;28;80792;-56
2024/04/05 08:41:39;;;;;;;2.10;1.52;;;25.30;48.80;;;;;;6145639;28;80839;-52
2024/04/05 08:44:39;;;;;;;1.58;1.48;;;25.30;48.70;;;;;;6157265;28;80217;-51
2024/04/05 08:47:40;;;;;;;2.67;1.45;;;25.30;48.50;;;;;;6146177;28;80704;-51
2024/04/05 08:50:40;;;;;;;1.60;1.33;;;25.40;48.40;;;;;;6157650;28;80602;-54
2024/04/05 08:53:41;;;;;;;1.98;1.45;;;25.40;48.30;;;;;;6160308;28;80604;-54
2024/04/05 08:56:43;;;;;;;2.92;1.42;;;25.40;48.40;;;;;;6142073;28;80755;-54
2024/04/05 08:59:45;;;;;;;1.98;1.40;;;25.40;48.40;;;;;;6132002;28;80358;-54
2024/04/05 09:02:45;;;;;;;1.70;1.30;;;25.40;48.30;;;;;;6138341;28;82160;-56
2024/04/05 09:05:46;;;;;;;2.72;1.48;;;25.40;49.20;;;;;;6136397;28;80561;-55
2024/04/05 09:08:46;;;;;;;1.70;1.50;;;25.40;48.40;;;;;;6135148;28;81778;-55
2024/04/05 09:11:47;;;;;;;2.35;1.67;;;25.40;48.50;;;;;;6145522;28;80160;-54
2024/04/05 09:14:47;;;;;;;1.90;1.50;;;25.40;48.30;;;;;;6166761;28;82144;-53
2024/04/05 09:17:49;;;;;;;3.13;1.33;;;25.50;48.30;;;;;;6154972;28;81003;-55
2024/04/05 09:20:50;;;;;;;2.03;1.38;;;25.50;48.20;;;;;;6169345;28;80843;-53
2024/04/05 09:23:51;;;;;;;3.53;1.83;;;25.50;48.30;;;;;;6150659;28;80706;-54
2024/04/05 09:26:53;;;;;;;1.90;1.27;;;25.50;48.20;;;;;;6136772;28;80653;-53
2024/04/05 09:29:53;;;;;;;1.52;1.30;;;25.60;48.30;;;;;;6138120;28;82057;-55
2024/04/05 09:32:54;;;;;;;1.27;1.17;;;25.60;48.10;;;;;;6137708;28;80411;-54
2024/04/05 09:35:55;;;;;;;1.90;1.42;;;25.60;48.00;;;;;;6138147;28;80524;-58
2024/04/05 09:38:55;;;;;;;2.20;1.50;;;25.60;48.10;;;;;;6128548;28;81562;-53
2024/04/05 09:41:56;;;;;;;1.83;1.15;;;25.70;48.00;;;;;;6131013;28;80760;-55
2024/04/05 09:44:58;;;;;;;3.22;1.27;;;25.70;48.10;;;;;;6131524;28;80337;-53
2024/04/05 09:47:58;;;;;;;2.47;1.42;;;25.70;48.10;;;;;;6136969;28;81848;-57
2024/04/05 09:50:59;;;;;;;1.58;1.08;;;25.60;48.20;;;;;;6138230;28;81346;-53
2024/04/05 09:53:59;;;;;;;4.93;1.30;;;25.60;48.10;;;;;;6134777;28;80362;-49
2024/04/05 09:57:00;;;;;;;1.17;1.08;;;25.70;48.10;;;;;;6133784;28;80424;-48
2024/04/05 10:00:00;;;;;;;1.77;1.00;;;25.70;48.10;;;;;;6143522;28;80347;-53
2024/04/05 10:03:05;;;;;;;3.33;1.55;;;25.70;48.00;;;;;;6129234;28;85020;-51
2024/04/05 10:06:05;;;;;;;2.63;1.40;;;25.80;48.00;;;;;;6130274;28;80521;-53
2024/04/05 10:09:06;;;;;;;2.83;1.20;;;25.70;48.10;;;;;;6136389;28;80819;-52
2024/04/05 10:12:07;;;;;;;1.70;0.93;;;25.80;48.00;;;;;;6127202;28;81078;-54
2024/04/05 10:15:09;;;;;;;2.08;1.13;;;25.80;48.10;;;;;;6127303;28;80697;-54
2024/04/05 10:18:09;;;;;;;3.78;1.20;;;25.80;48.10;;;;;;6132449;28;80316;-53
2024/04/05 10:21:10;;;;;;;1.75;1.25;;;25.90;48.10;;;;;;6128780;28;83846;-56
2024/04/05 10:24:11;;;;;;;1.90;0.90;;;25.90;47.90;;;;;;6131396;28;80228;-55
2024/04/05 10:27:11;;;;;;;1.38;0.80;;;25.90;48.10;;;;;;6140656;28;80505;-54
2024/04/05 10:30:12;;;;;;;1.52;1.23;;;25.90;48.00;;;;;;6128857;28;80390;-52
2024/04/05 10:33:12;;;;;;;2.00;1.00;;;25.90;47.80;;;;;;6139488;28;80640;-48
2024/04/05 10:36:13;;;;;;;2.10;1.02;;;25.90;47.80;;;;;;6125379;28;83051;-59
2024/04/05 10:39:19;;;;;;;1.65;1.00;;;25.90;47.70;;;;;;6134174;28;82424;-59
2024/04/05 10:42:20;;;;;;;2.85;1.50;;;25.90;47.80;;;;;;6129972;28;80444;-62
2024/04/05 10:45:22;;;;;;;3.08;1.40;;;25.90;48.10;;;;;;6136449;28;82055;-64
2024/04/05 10:48:23;;;;;;;3.70;1.67;;;25.80;47.50;;;;;;6132497;28;80848;-62
2024/04/05 10:51:23;;;;;;;2.35;1.38;;;25.90;47.80;;;;;;6137126;28;81114;-54
2024/04/05 10:54:24;;;;;;;7.78;1.85;;;25.90;47.10;;;;;;6134870;28;80620;-52
2024/04/05 10:57:24;;;;;;;2.42;1.23;;;25.90;46.60;;;;;;6130810;28;80565;-50
2024/04/05 11:00:25;;;;;;;2.33;1.40;;;25.80;43.60;;;;;;6135730;28;83533;-46
2024/04/05 11:03:25;;;;;;;3.42;1.27;;;25.70;42.20;;;;;;6131792;28;81744;-57
2024/04/05 11:06:27;;;;;;;7.65;1.50;;;25.70;42.80;;;;;;6138378;28;80632;-49
2024/04/05 11:09:28;;;;;;;8.38;1.25;;;25.60;41.90;;;;;;6130191;28;80945;-53
2024/04/05 11:12:29;;;;;;;6.10;1.55;;;25.50;41.80;;;;;;6128869;28;80849;-50
2024/04/05 11:15:29;;;;;;;3.53;1.33;;;25.50;41.50;;;;;;6136300;28;80818;-49
2024/04/05 11:18:30;;;;;;;5.35;1.65;;;25.50;41.20;;;;;;6132242;28;83734;-50
2024/04/05 11:21:30;;;;;;;7.70;1.50;;;25.50;40.70;;;;;;6133385;28;81466;-52
2024/04/05 11:24:30;;;;;;;5.10;1.35;;;25.50;40.30;;;;;;6156302;28;80632;-49
2024/04/05 11:27:31;;;;;;;5.38;1.50;;;25.50;40.10;;;;;;6165305;28;81012;-53
2024/04/05 11:30:31;;;;;;;4.03;1.02;;;25.50;41.30;;;;;;6158212;28;81291;-49
2024/04/05 11:33:32;;;;;;;6.30;1.58;;;25.50;41.20;;;;;;6154507;28;84371;-50
2024/04/05 11:36:33;;;;;;;5.28;1.42;;;25.40;40.40;;;;;;6153207;28;81378;-48
2024/04/05 11:39:33;;;;;;;5.05;1.30;;;25.30;40.30;;;;;;6152370;28;80942;-50
2024/04/05 11:42:34;;;;;;;5.65;1.15;;;25.40;40.00;;;;;;6152451;28;80015;-49
2024/04/05 11:45:35;;;;;;;3.10;1.42;;;25.40;40.00;;;;;;6153064;28;80634;-51
2024/04/05 11:48:35;;;;;;;10.43;1.40;;;25.40;39.70;;;;;;6153104;28;80631;-53
2024/04/05 11:51:36;;;;;;;8.90;1.63;;;25.50;40.10;;;;;;6151476;28;80374;-53
2024/04/05 11:54:36;;;;;;;8.75;1.58;;;25.50;39.40;;;;;;6151835;28;80562;-51
2024/04/05 11:57:37;;;;;;;10.23;1.83;;;25.50;39.90;;;;;;6152800;28;80865;-51
2024/04/05 12:00:38;;;;;;;5.78;1.38;;;25.50;39.70;;;;;;6149128;28;85993;-54
2024/04/05 12:03:38;;;;;;;3.15;1.00;;;25.50;40.70;;;;;;6158886;28;82867;-47
2024/04/05 12:06:39;;;;;;;5.68;1.10;;;25.50;40.50;;;;;;6156170;28;82909;-55
2024/04/05 12:09:39;;;;;;;4.00;1.52;;;25.50;41.20;;;;;;6150088;28;83419;-58
2024/04/05 12:12:40;;;;;;;4.65;1.58;;;25.60;41.40;;;;;;6162114;28;80595;-56
2024/04/05 12:15:40;;;;;;;8.98;1.20;;;25.70;41.40;;;;;;6162236;28;80675;-55
2024/04/05 12:18:41;;;;;;;4.00;1.52;;;25.80;41.80;;;;;;6163637;28;80686;-57
2024/04/05 12:21:41;;;;;;;5.88;1.40;;;25.70;42.20;;;;;;6148500;28;82355;-58
2024/04/05 12:24:42;;;;;;;2.22;0.98;;;25.70;42.20;;;;;;6168574;28;81792;-59
2024/04/05 12:27:42;;;;;;;2.63;1.17;;;25.80;42.60;;;;;;6160240;28;85126;-59
2024/04/05 12:30:43;;;;;;;4.00;1.10;;;25.80;42.50;;;;;;6170206;28;80422;-59
2024/04/05 12:33:43;;;;;;;1.23;0.95;;;25.90;42.70;;;;;;6168734;28;80918;-60
2024/04/05 12:36:44;;;;;;;2.03;1.00;;;25.90;42.70;;;;;;6171167;28;80348;-59
2024/04/05 12:39:45;;;;;;;6.15;1.33;;;26.00;43.20;;;;;;6159168;28;83510;-60
2024/04/05 12:42:46;;;;;;;2.70;1.27;;;26.00;43.30;;;;;;6164322;28;80537;-53
2024/04/05 12:45:46;;;;;;;10.85;1.50;;;26.00;43.30;;;;;;6157212;28;80680;-58
2024/04/05 12:48:47;;;;;;;8.00;1.40;;;26.00;43.20;;;;;;6155501;28;80964;-58
2024/04/05 12:51:47;;;;;;;6.95;1.42;;;25.90;43.10;;;;;;6162014;28;80280;-56
2024/04/05 12:54:48;;;;;;;3.80;1.02;;;26.00;43.20;;;;;;6156233;28;82446;-51
2024/04/05 12:57:48;;;;;;;7.72;1.88;;;26.10;43.40;;;;;;6152778;28;82288;-59
2024/04/05 13:00:50;;;;;;;2.60;0.98;;;26.10;43.20;;;;;;6152359;28;81013;-52
2024/04/05 13:03:51;;;;;;;7.07;1.20;;;26.10;43.20;;;;;;6151226;28;81273;-52
2024/04/05 13:06:51;;;;;;;3.20;1.27;;;26.10;43.20;;;;;;6161872;28;81294;-54
2024/04/05 13:09:52;;;;;;;5.97;1.00;;;26.10;43.10;;;;;;6148309;28;86638;-54
2024/04/05 13:12:53;;;;;;;6.65;0.95;;;26.10;42.90;;;;;;6147049;28;80770;-58
2024/04/05 13:15:53;;;;;;;12.80;1.33;;;26.20;42.80;;;;;;6139611;28;83748;-56
2024/04/05 13:18:54;;;;;;;3.40;1.05;;;26.10;43.00;;;;;;6151071;28;81473;-58
2024/04/05 13:21:54;;;;;;;2.45;1.20;;;26.10;43.00;;;;;;6150602;28;80983;-58
2024/04/05 13:24:55;;;;;;;2.17;1.05;;;26.10;43.00;;;;;;6150216;28;81624;-57
2024/04/05 13:27:56;;;;;;;4.07;1.25;;;26.10;42.70;;;;;;6153346;28;83016;-59
2024/04/05 13:30:57;;;;;;;3.63;0.85;;;26.20;42.50;;;;;;6141503;28;81081;-58
2024/04/05 13:33:57;;;;;;;4.88;1.05;;;26.20;42.30;;;;;;6141013;28;80433;-58
2024/04/05 13:36:58;;;;;;;5.68;1.48;;;26.10;42.20;;;;;;6147409;28;81456;-58
2024/04/05 13:39:58;;;;;;;6.15;0.95;;;26.10;42.20;;;;;;6149720;28;81842;-52
2024/04/05 13:42:59;;;;;;;1.20;0.90;;;26.00;41.80;;;;;;6151519;28;80906;-55
2024/04/05 13:45:59;;;;;;;5.20;1.20;;;26.00;41.80;;;;;;6153302;28;84159;-52
2024/04/05 13:49:00;;;;;;;2.63;1.00;;;25.90;42.10;;;;;;6147020;28;80731;-53
2024/04/05 13:52:00;;;;;;;3.03;1.25;;;25.90;42.40;;;;;;6163371;28;80933;-51
2024/04/05 13:55:01;;;;;;;19.27;1.77;;;26.00;42.30;;;;;;6160333;28;80521;-54
2024/04/05 13:58:05;;;;;;;5.45;1.55;;;25.80;42.90;;;;;;6170800;28;80310;-55
2024/04/05 14:01:05;;;;;;;6.97;1.25;;;25.90;42.90;;;;;;6166261;28;83117;-57
2024/04/05 14:04:06;;;;;;;4.53;1.25;;;25.80;42.50;;;;;;6157750;28;85044;-60
2024/04/05 14:07:07;;;;;;;5.00;1.83;;;25.90;42.50;;;;;;6166663;28;85004;-58
2024/04/05 14:10:07;;;;;;;5.13;1.25;;;25.80;42.60;;;;;;6161211;28;80409;-60
2024/04/05 14:13:08;;;;;;;8.18;1.20;;;25.80;43.00;;;;;;6150629;28;83275;-59
2024/04/05 14:16:09;;;;;;;4.10;1.48;;;25.80;43.00;;;;;;6125495;28;86126;-57
2024/04/05 14:19:09;;;;;;;6.47;1.25;;;25.80;43.00;;;;;;6151416;28;81064;-59
2024/04/05 14:22:10;;;;;;;9.38;1.80;;;25.80;42.80;;;;;;6151893;28;83327;-59
2024/04/05 14:25:11;;;;;;;9.52;2.03;;;25.80;42.80;;;;;;6162673;28;80608;-57
2024/04/05 14:28:11;;;;;;;4.90;1.20;;;25.80;42.70;;;;;;6158135;28;80235;-59
2024/04/05 14:31:12;;;;;;;3.20;1.05;;;25.80;43.20;;;;;;6170505;28;82420;-59
2024/04/05 14:34:13;;;;;;;6.18;1.50;;;25.80;43.00;;;;;;6153988;28;81155;-57
2024/04/05 14:37:14;;;;;;;8.05;1.58;;;25.90;43.30;;;;;;6159989;28;81633;-55
2024/04/05 14:40:15;;;;;;;3.67;1.50;;;25.90;43.40;;;;;;6160289;28;81271;-56
2024/04/05 14:43:16;;;;;;;7.35;1.58;;;25.90;43.50;;;;;;6171731;28;83561;-56
2024/04/05 14:46:17;;;;;;;4.13;1.58;;;25.90;43.60;;;;;;6163208;28;81003;-56
2024/04/05 14:49:17;;;;;;;3.10;1.25;;;25.90;43.50;;;;;;6168331;28;80308;-52
2024/04/05 14:52:18;;;;;;;3.28;1.13;;;25.90;43.70;;;;;;6158717;28;82727;-58
2024/04/05 14:55:18;;;;;;;6.95;1.30;;;25.90;43.80;;;;;;6159612;28;82868;-57
2024/04/05 14:58:20;;;;;;;11.35;1.92;;;25.90;43.70;;;;;;6164425;28;83721;-54
2024/04/05 15:01:20;;;;;;;5.32;1.30;;;25.90;43.40;;;;;;6156352;28;80544;-51
2024/04/05 15:04:22;;;;;;;3.67;1.70;;;25.80;42.80;;;;;;6153677;28;80449;-53
2024/04/05 15:07:23;;;;;;;9.80;1.50;;;25.80;42.80;;;;;;6157407;28;80397;-53
2024/04/05 15:10:24;;;;;;;4.88;1.50;;;25.80;42.80;;;;;;6145755;28;80703;-53
2024/04/05 15:13:25;;;;;;;5.53;1.35;;;25.80;42.70;;;;;;6147022;28;80266;-54
2024/04/05 15:16:26;;;;;;;4.47;1.17;;;25.80;42.80;;;;;;6136931;28;81118;-53
2024/04/05 15:19:26;;;;;;;4.20;1.60;;;25.80;42.60;;;;;;6136803;28;80107;-54
2024/04/05 15:22:27;;;;;;;2.22;1.17;;;25.80;42.70;;;;;;6144007;28;80471;-54
2024/04/05 15:25:27;;;;;;;4.45;1.38;;;25.70;42.50;;;;;;6150361;28;84394;-52
2024/04/05 15:28:30;;;;;;;4.65;1.20;;;25.70;42.50;;;;;;6155988;28;80662;-52
2024/04/05 15:31:33;;;;;;;4.28;1.50;;;25.70;42.40;;;;;;6158811;28;80344;-50
2024/04/05 15:34:34;;;;;;;2.28;1.27;;;25.70;42.60;;;;;;6156154;28;80102;-54
2024/04/05 15:37:34;;;;;;;3.38;1.20;;;25.70;42.60;;;;;;6153651;28;80346;-55